East Midlands Airport

Airport
ICAO code: 
EGNX
IATA Code: 
EMA
Summary
ICAO Region: 
EUR
Territory: 
Location: 
Castle Donington, Leicestershire, England
Serving: 
Nottingham
Elevation: 
306 ft
Coordinates: 
Aerial View: 
52° 49' 50.577" N, 1° 19' 54.26" W
Metar
Observation
EGNX 041120Z 25022KT 9999 FEW020 SCT043 06/02 Q0994
Station
East Midlands
Date/Time
2021-12-04 11:20:00
Wind direction
250°
Wind speed
22 kts
Lowest cloud amount
few clouds
Temperature
6°C
Dew point
2°C
Humidity
75%
QNH
994 hPa
Weather condition
n/a

Description

International airport serving the cities of Nottingham, Leicester, Derby and the East Midlands region of England generally.

Climatology

Temperate Marine climate/Oceanic climate (Köppen climate classification Cfb). Moderately cool summer and comparatively warm winter with a temperature range of only 14°C. Prevailing south-westerly winds from the Atlantic Ocean.

Runways

Designator Length Width Surface Rops
9/27 2893 46 ASP Yes/Yes

SKYbrary Partners:

Safety knowledge contributed by: